Aérodrome :
LOGIN :

S'inscrire | Disclaimer

   EN    FR    IT 

 










Légende :    VFR   VFR Marginal   IFR   IFR Intensif   IFR Très Intensif
Visi : 
Plafond : 
>= 8 km
>= 3000ft
5 à 8 km
1000 à 3000 ft
1500m à 5 km
500 à 1000 ft
800 à 1500m
200 à 500 ft
< 800m
< 200 ft
Symboles :   Orages  Brouillard  Fortes neiges  Fortes précipitations  Vent > 20 kt
SIGMETs :   Divers  Orages  Givrage  Turbulence  Onde Orograph.  Cendres Volcan.






- Altitude de l'aérodrome : 1411 ft
- Code IATA : ZHI


LSZG - Grenchen

DERNIER METAR :
  • 080650Z 05006KT 9999 OVC019 M03/M06 Q1033

METARs EXPIRÉS :
  • 080620Z AUTO 04007KT 9999 OVC019 M03/M06 Q1033
  • 080550Z AUTO 04009KT 9999 BKN018 M03/M06 Q1033
  • 080520Z AUTO 04008KT 010V070 9999 BKN017 M03/M06 Q1032
  • 080450Z AUTO 05009KT 030V100 9999 BKN018 M03/M05 Q1032
  • 080420Z AUTO 06011KT 9999 FEW019 M04/M06 Q1032
  • 080350Z AUTO 07010KT CAVOK M03/M06 Q1032

TAF TAF LSZG
Valide du 08 à 06h jusqu'au 08 à 15h UTC


080525Z 0806/0815 07010KT 9999 BKN016
PROB40 0812/0815 CAVOK
ATIS : +41 32 396 96 33



MET'MAP, la Météo Aéronautique d'un coup d'oeil ! - Copyright ORBIFLY Décembre 2007 - Disclaimer

ORBIFLY MET'MAP TEAM :

Programmation & Développement : Alexandra Zaïnal
Sur une idée originale de : Baudouin d'Aumeries
Soutien technique & logistique : Manuel Goepfert
Assistance : Marc-Olivier Méhu




SOURCES & CREDITS :

   NOAA